Time;durP1;ratioP1;P1;durP2;ratioP2;P2;SDS_P1;SDS_P2;PMS_P1;PMS_P2;Temp;Humidity;BMP_temperature;BMP_pressure;BME280_temperature;BME280_humidity;BME280_pressure;Samples;Min_cycle;Max_cycle;Signal;HPM_P1;HPM_P2
2023/10/18 00:00:35;;;;;;;;;46.75;38.00;;;;;9.19;100.00;99066.97;6186112;28;96640;-70
2023/10/18 00:03:39;;;;;;;;;50.80;42.40;;;;;9.16;100.00;99055.81;6194257;28;96631;-70
2023/10/18 00:06:43;;;;;;;;;47.00;38.00;;;;;9.13;100.00;99062.44;6273906;27;98727;-70
2023/10/18 00:09:50;;;;;;;;;49.20;40.00;;;;;9.07;100.00;99071.34;6212253;28;96375;-70
2023/10/18 00:12:55;;;;;;;;;47.25;39.00;;;;;8.93;100.00;99065.16;6274590;27;98483;-70
2023/10/18 00:16:03;;;;;;;;;49.60;40.00;;;;;8.90;100.00;99062.84;6254154;27;96285;-70
2023/10/18 00:19:06;;;;;;;;;47.00;39.00;;;;;8.91;100.00;99053.75;6186435;28;96258;-70
2023/10/18 00:22:11;;;;;;;;;50.00;40.40;;;;;8.90;100.00;99057.47;6252494;27;98397;-70
2023/10/18 00:25:15;;;;;;;;;45.40;38.20;;;;;8.85;100.00;99059.13;6186835;28;97044;-70
2023/10/18 00:28:20;;;;;;;;;47.75;39.00;;;;;8.83;100.00;99061.22;6277718;27;97162;-70
2023/10/18 00:31:27;;;;;;;;;45.60;37.40;;;;;8.82;100.00;99051.47;6210811;28;96367;-70
2023/10/18 00:34:30;;;;;;;;;45.33;39.00;;;;;8.79;100.00;99044.66;6257026;27;96397;-70
2023/10/18 00:37:34;;;;;;;;;45.00;38.00;;;;;8.81;100.00;99041.75;6186142;28;96374;-70
2023/10/18 00:40:40;;;;;;;;;45.40;37.00;;;;;8.80;100.00;99046.28;6187208;28;96238;-70
2023/10/18 00:43:45;;;;;;;;;41.50;35.50;;;;;8.83;100.00;99034.31;6259625;27;96394;-69
2023/10/18 00:46:52;;;;;;;;;46.80;38.00;;;;;8.82;100.00;99028.13;6207836;27;97213;-70
2023/10/18 00:49:55;;;;;;;;;45.00;37.00;;;;;8.83;100.00;99019.03;6252057;27;96699;-69
2023/10/18 00:53:00;;;;;;;;;43.60;35.80;;;;;8.92;100.00;99017.78;6184498;28;96565;-69
2023/10/18 00:56:05;;;;;;;;;39.80;34.40;;;;;8.94;100.00;99020.25;6186307;28;97011;-69
2023/10/18 00:59:18;;;;;;;;;37.00;33.00;;;;;8.91;100.00;99012.59;6234534;27;97042;-71
2023/10/18 01:02:28;;;;;;;;;39.40;34.40;;;;;9.00;100.00;99016.72;6252987;27;98472;-70
2023/10/18 01:05:31;;;;;;;;;36.00;32.00;;;;;9.04;100.00;99015.28;6275238;27;96842;-70
2023/10/18 01:08:37;;;;;;;;;33.00;30.60;;;;;9.03;100.00;99000.19;6210595;28;96383;-70
2023/10/18 01:11:40;;;;;;;;;37.00;33.00;;;;;8.99;100.00;98999.75;6277751;27;96654;-70
2023/10/18 01:14:45;;;;;;;;;36.25;32.00;;;;;9.02;100.00;99003.91;6245994;27;96654;-70
2023/10/18 01:17:49;;;;;;;;;33.20;30.00;;;;;9.07;100.00;99007.63;6253067;27;96429;-70
2023/10/18 01:20:53;;;;;;;;;37.60;32.60;;;;;9.10;100.00;99001.00;6186120;28;96452;-70
2023/10/18 01:23:59;;;;;;;;;31.00;29.00;;;;;9.14;100.00;99005.72;6246965;27;98379;-71
2023/10/18 01:27:05;;;;;;;;;34.20;32.00;;;;;9.15;100.00;99006.56;6185440;27;96455;-70
2023/10/18 01:30:10;;;;;;;;;32.40;30.00;;;;;9.24;100.00;99007.16;6255264;27;99225;-70
2023/10/18 01:33:15;;;;;;;;;34.60;30.00;;;;;9.26;100.00;98999.72;6190612;28;96655;-70
2023/10/18 01:36:20;;;;;;;;;35.00;32.00;;;;;9.24;100.00;98999.09;6278033;27;96266;-70
2023/10/18 01:39:28;;;;;;;;;30.75;29.50;;;;;9.25;100.00;98998.88;6276273;27;96313;-69
2023/10/18 01:42:37;;;;;;;;;32.00;30.00;;;;;9.26;100.00;98997.03;6207130;28;96521;-69
2023/10/18 01:45:47;;;;;;;;;35.00;31.00;;;;;9.22;100.00;99003.88;6272573;27;97005;-69
2023/10/18 01:48:51;;;;;;;;;34.00;30.00;;;;;9.18;100.00;98998.09;6275122;27;97610;-70
2023/10/18 01:51:57;;;;;;;;;29.60;28.00;;;;;9.13;100.00;99009.47;6207207;28;96284;-69
2023/10/18 01:55:00;;;;;;;;;31.75;30.00;;;;;9.07;100.00;99006.78;6199922;28;96535;-70
2023/10/18 01:58:09;;;;;;;;;31.00;29.60;;;;;9.03;100.00;98998.31;6249559;27;96797;-69
2023/10/18 02:01:16;;;;;;;;;33.00;30.00;;;;;8.96;100.00;99005.56;6250119;27;96358;-69
2023/10/18 02:04:25;;;;;;;;;34.00;30.75;;;;;8.89;100.00;99003.94;6262914;27;96464;-70
2023/10/18 02:07:48;;;;;;;;;33.00;30.40;;;;;8.79;100.00;99001.66;6184898;28;96942;-70
2023/10/18 02:10:51;;;;;;;;;33.20;30.00;;;;;8.73;100.00;99007.03;6250136;27;97031;-70
2023/10/18 02:13:56;;;;;;;;;29.75;27.00;;;;;8.60;100.00;99007.84;6184173;28;96208;-70
2023/10/18 02:16:59;;;;;;;;;36.00;32.00;;;;;8.53;100.00;98999.78;6268339;27;96417;-70
2023/10/18 02:20:13;;;;;;;;;38.60;33.00;;;;;8.46;100.00;99001.63;6253029;27;96599;-70
2023/10/18 02:23:16;;;;;;;;;35.20;31.60;;;;;8.39;100.00;99010.72;6193429;28;97105;-70
2023/10/18 02:26:31;;;;;;;;;38.80;33.00;;;;;8.38;100.00;99009.06;6194698;27;96640;-69
2023/10/18 02:29:39;;;;;;;;;35.40;32.00;;;;;8.30;100.00;99009.28;6259556;27;98736;-70
2023/10/18 02:32:43;;;;;;;;;30.50;29.50;;;;;8.25;100.00;99007.16;6268197;27;96441;-69
2023/10/18 02:35:47;;;;;;;;;35.50;32.00;;;;;8.20;100.00;99010.47;6187003;28;97467;-70
2023/10/18 02:38:50;;;;;;;;;35.20;32.00;;;;;8.20;100.00;99015.84;6210719;27;96320;-70
2023/10/18 02:41:54;;;;;;;;;33.75;30.00;;;;;8.21;100.00;99006.72;6276201;27;96510;-70
2023/10/18 02:44:59;;;;;;;;;37.00;32.00;;;;;8.17;100.00;99005.47;6185506;28;96278;-70
2023/10/18 02:48:02;;;;;;;;;36.00;32.00;;;;;8.17;100.00;99005.47;6184280;28;96333;-70
2023/10/18 02:51:06;;;;;;;;;36.00;32.00;;;;;8.08;100.00;99004.00;6190031;28;96392;-71
2023/10/18 02:54:16;;;;;;;;;33.50;30.25;;;;;8.02;100.00;99004.00;6255444;27;96501;-70
2023/10/18 02:57:19;;;;;;;;;35.00;31.00;;;;;7.98;100.00;99005.44;6276761;27;96411;-70
2023/10/18 03:00:25;;;;;;;;;33.60;30.60;;;;;7.97;100.00;99004.59;6206043;27;97828;-70
2023/10/18 03:03:30;;;;;;;;;33.60;30.40;;;;;8.03;100.00;99006.47;6193368;27;96342;-70
2023/10/18 03:06:34;;;;;;;;;33.00;30.00;;;;;8.07;100.00;99009.56;6250553;27;96423;-70
2023/10/18 03:09:39;;;;;;;;;29.60;27.60;;;;;8.08;100.00;98993.28;6199162;28;96261;-71
2023/10/18 03:12:44;;;;;;;;;38.75;33.00;;;;;8.14;100.00;99010.44;6251550;27;97503;-70
2023/10/18 03:16:04;;;;;;;;;38.00;32.00;;;;;8.17;100.00;99002.78;6196738;27;96474;-70
2023/10/18 03:19:12;;;;;;;;;32.00;29.40;;;;;8.12;100.00;99007.94;6184093;27;97386;-70
2023/10/18 03:22:19;;;;;;;;;33.80;31.60;;;;;8.06;100.00;98997.22;6250257;27;96364;-67
2023/10/18 03:25:27;;;;;;;;;31.00;28.80;;;;;7.97;100.00;98996.53;6192579;28;96388;-70
2023/10/18 03:28:35;;;;;;;;;34.50;31.00;;;;;7.88;100.00;98999.59;6274513;27;97581;-69
2023/10/18 03:31:43;;;;;;;;;38.00;33.20;;;;;7.79;100.00;99002.47;6276250;27;96320;-71
2023/10/18 03:34:47;;;;;;;;;33.60;30.80;;;;;7.70;100.00;98994.81;6187053;28;96636;-70
2023/10/18 03:37:50;;;;;;;;;35.00;32.00;;;;;7.59;100.00;98985.47;6250656;27;96188;-69
2023/10/18 03:40:57;;;;;;;;;34.20;30.60;;;;;7.60;100.00;98988.97;6248319;27;96959;-69
2023/10/18 03:44:06;;;;;;;;;39.40;34.00;;;;;7.58;100.00;98989.19;6261829;27;96408;-70
2023/10/18 03:47:12;;;;;;;;;36.00;32.00;;;;;7.54;100.00;98974.50;6192344;28;96818;-70
2023/10/18 03:50:16;;;;;;;;;39.00;33.75;;;;;7.54;100.00;98976.38;6263190;27;96300;-70
2023/10/18 03:53:22;;;;;;;;;39.25;33.25;;;;;7.52;100.00;98976.59;6255569;27;96583;-70
2023/10/18 03:56:26;;;;;;;;;41.60;33.60;;;;;7.48;100.00;98971.81;6272703;27;96428;-69
2023/10/18 03:59:37;;;;;;;;;38.75;33.50;;;;;7.50;100.00;98959.03;6255878;27;98440;-70
2023/10/18 04:02:46;;;;;;;;;36.40;32.40;;;;;7.59;100.00;98945.22;6277617;27;98728;-70
2023/10/18 04:05:52;;;;;;;;;32.75;30.00;;;;;7.71;100.00;98943.63;6259561;27;98394;-70
2023/10/18 04:09:13;;;;;;;;;32.60;29.00;;;;;7.65;100.00;98928.34;6252303;27;96806;-69
2023/10/18 04:12:19;;;;;;;;;32.40;30.00;;;;;7.70;100.00;98950.03;6209642;28;96310;-69
2023/10/18 04:15:23;;;;;;;;;36.40;32.00;;;;;7.72;100.00;98939.91;6275387;27;96636;-70
2023/10/18 04:18:29;;;;;;;;;29.50;29.00;;;;;7.67;100.00;98950.41;6277728;27;96562;-70
2023/10/18 04:21:33;;;;;;;;;26.50;25.50;;;;;7.72;100.00;98944.47;6275980;27;97160;-70
2023/10/18 04:24:39;;;;;;;;;31.20;29.80;;;;;7.78;100.00;98957.03;6203163;27;97636;-70
2023/10/18 04:27:44;;;;;;;;;27.75;25.75;;;;;7.77;100.00;98950.84;6275852;27;96859;-70
2023/10/18 04:30:52;;;;;;;;;28.25;26.00;;;;;7.80;100.00;98947.78;6252737;27;97438;-70
2023/10/18 04:33:57;;;;;;;;;28.60;26.60;;;;;7.82;100.00;98958.28;6186325;28;96351;-70
2023/10/18 04:37:06;;;;;;;;;31.60;29.40;;;;;7.88;100.00;98957.50;6271269;27;96847;-70
2023/10/18 04:40:22;;;;;;;;;28.00;27.40;;;;;7.87;100.00;98957.72;6278103;27;96351;-70
2023/10/18 04:43:27;;;;;;;;;31.40;27.20;;;;;7.70;100.00;98951.88;6257575;27;97780;-68
2023/10/18 04:46:31;;;;;;;;;32.00;29.20;;;;;7.71;100.00;98964.28;6249648;27;96772;-70
2023/10/18 04:49:39;;;;;;;;;37.00;32.40;;;;;7.59;100.00;98972.06;6259657;27;96222;-70
2023/10/18 04:52:41;;;;;;;;;30.50;28.00;;;;;7.49;100.00;98965.41;6209253;28;96317;-70
2023/10/18 04:55:46;;;;;;;;;33.60;31.80;;;;;7.43;100.00;98958.19;6209622;28;96260;-70
2023/10/18 04:58:48;;;;;;;;;32.00;30.00;;;;;7.39;100.00;98965.78;6288487;27;96313;-70
2023/10/18 05:01:56;;;;;;;;;33.60;31.60;;;;;7.30;100.00;98964.28;6198318;28;96578;-69
2023/10/18 05:05:10;;;;;;;;;31.00;27.00;;;;;7.27;100.00;98962.84;6274166;27;97551;-68
2023/10/18 05:08:16;;;;;;;;;36.80;33.00;;;;;7.25;100.00;98972.94;6267670;27;96513;-69
2023/10/18 05:11:26;;;;;;;;;31.20;29.00;;;;;7.18;100.00;98960.53;6271529;27;96351;-70
2023/10/18 05:14:43;;;;;;;;;30.20;29.80;;;;;7.24;100.00;98976.63;6208299;27;96747;-69
2023/10/18 05:17:51;;;;;;;;;31.60;30.00;;;;;7.24;100.00;98973.97;6206232;28;96244;-70
2023/10/18 05:20:58;;;;;;;;;32.80;30.00;;;;;7.19;100.00;98970.22;6267018;27;97081;-70
2023/10/18 05:24:04;;;;;;;;;31.80;28.80;;;;;7.17;100.00;98961.56;6277722;27;99421;-66
2023/10/18 05:27:19;;;;;;;;;33.00;30.00;;;;;7.23;100.00;98971.50;6264952;27;96802;-70
2023/10/18 05:30:26;;;;;;;;;31.00;28.00;;;;;7.35;100.00;98976.09;6271001;27;96319;-70
2023/10/18 05:37:12;;;;;;;;;33.00;30.00;;;;;7.67;100.00;98976.44;6186082;27;96785;-70
2023/10/18 05:43:37;;;;;;;;;28.80;26.60;;;;;8.06;100.00;98968.47;6245341;27;98584;-69
2023/10/18 05:46:41;;;;;;;;;27.20;26.20;;;;;8.19;100.00;98968.50;6249445;27;98736;-69
2023/10/18 05:49:45;;;;;;;;;30.40;29.00;;;;;8.34;100.00;98965.66;6250325;27;96332;-69
2023/10/18 05:52:57;;;;;;;;;31.00;30.00;;;;;8.48;100.00;98967.34;6185900;27;96700;-69
2023/10/18 05:56:00;;;;;;;;;33.00;30.40;;;;;8.62;100.00;98974.34;6148386;28;96367;-69
2023/10/18 05:59:27;;;;;;;;;28.00;26.60;;;;;8.86;100.00;98972.06;6137872;28;96699;-69
2023/10/18 06:02:31;;;;;;;;;31.00;29.50;;;;;9.14;100.00;98969.94;6149971;28;96428;-70
2023/10/18 06:05:34;;;;;;;;;35.60;29.20;;;;;9.51;100.00;98974.59;6135698;28;96422;-69
2023/10/18 06:08:38;;;;;;;;;27.00;26.00;;;;;10.01;100.00;98966.72;6159910;27;96809;-70
2023/10/18 06:11:48;;;;;;;;;27.40;27.00;;;;;10.79;100.00;98967.22;6140506;28;97019;-70
2023/10/18 06:14:52;;;;;;;;;30.00;30.00;;;;;11.40;100.00;98974.47;6135873;28;96723;-70
2023/10/18 06:17:57;;;;;;;;;31.25;29.00;;;;;11.94;100.00;98974.47;6153264;27;96670;-70
2023/10/18 06:21:08;;;;;;;;;46.20;38.00;;;;;13.23;100.00;98970.97;6142266;28;96639;-70
2023/10/18 06:24:12;;;;;;;;;49.00;41.50;;;;;15.48;100.00;98967.44;6142552;27;98627;-70
2023/10/18 06:27:16;;;;;;;;;32.63;29.88;;;;;17.59;91.21;98973.31;6145483;28;96913;-70
2023/10/18 06:30:24;;;;;;;;;23.29;23.00;;;;;19.67;77.48;98971.66;6133591;28;96157;-70
2023/10/18 06:33:35;;;;;;;;;29.00;28.71;;;;;21.35;74.89;98969.47;6133011;28;96995;-70
2023/10/18 06:36:39;;;;;;;;;28.50;25.50;;;;;22.73;55.82;98963.88;6117236;28;96622;-71
2023/10/18 06:39:47;;;;;;;;;33.00;31.40;;;;;23.84;50.26;98963.81;6134740;28;97005;-71
2023/10/18 06:42:51;;;;;;;;;27.00;26.00;;;;;24.96;39.00;98968.50;6117816;28;96962;-71
2023/10/18 06:45:54;;;;;;;;;25.50;24.50;;;;;25.83;35.85;98965.91;6133549;28;96675;-71
2023/10/18 06:48:58;;;;;;;;;24.00;22.00;;;;;26.64;33.37;98966.22;6137615;28;96362;-72
2023/10/18 06:52:17;;;;;;;;;24.80;23.00;;;;;27.55;31.76;98965.97;6169685;28;96956;-71
2023/10/18 06:55:35;;;;;;;;;21.75;20.00;;;;;28.19;30.02;98960.31;6266948;27;96223;-72
2023/10/18 06:58:42;;;;;;;;;27.75;24.75;;;;;28.89;29.54;98963.38;6263863;27;96973;-71
2023/10/18 07:01:57;;;;;;;;;23.20;21.60;;;;;29.51;27.73;98961.28;6192927;28;96291;-71
2023/10/18 07:05:01;;;;;;;;;28.20;23.20;;;;;30.16;26.58;98953.09;6270173;27;96915;-72
2023/10/18 07:08:18;;;;;;;;;22.75;19.75;;;;;30.78;26.21;98952.66;6192928;28;96523;-72
2023/10/18 07:11:25;;;;;;;;;19.80;18.60;;;;;31.43;25.08;98948.50;6195341;28;96330;-72
2023/10/18 07:14:49;;;;;;;;;17.40;16.00;;;;;32.18;24.30;98952.03;6264427;27;96389;-72
2023/10/18 07:17:53;;;;;;;;;18.25;15.00;;;;;32.87;23.89;98953.19;6253389;27;97553;-72
2023/10/18 07:21:05;;;;;;;;;17.00;16.00;;;;;33.43;23.12;98956.28;6208182;27;96763;-72
2023/10/18 07:24:10;;;;;;;;;18.00;16.75;;;;;33.92;22.54;98952.75;6209426;27;96416;-73
2023/10/18 07:27:17;;;;;;;;;17.00;15.80;;;;;34.49;22.05;98948.06;6207788;28;96292;-72
2023/10/18 07:30:20;;;;;;;;;18.00;16.00;;;;;34.91;21.26;98940.22;6275432;27;96859;-72
2023/10/18 07:33:24;;;;;;;;;17.20;15.60;;;;;35.62;22.17;98947.41;6278176;27;96547;-72
2023/10/18 07:36:27;;;;;;;;;14.00;14.00;;;;;36.07;20.72;98939.75;6274217;27;96448;-72
2023/10/18 07:39:32;;;;;;;;;14.00;12.60;;;;;36.59;20.22;98946.13;6275832;27;96511;-72
2023/10/18 07:42:42;;;;;;;;;16.00;15.80;;;;;37.00;20.36;98941.91;6277867;27;96598;-72
2023/10/18 07:45:53;;;;;;;;;16.60;15.00;;;;;37.36;20.10;98937.22;6277205;27;96463;-72
2023/10/18 07:49:04;;;;;;;;;17.00;16.00;;;;;37.88;20.01;98938.47;6270077;27;96354;-72
2023/10/18 07:52:08;;;;;;;;;17.50;16.00;;;;;38.36;18.42;98930.41;6185025;28;96509;-72
2023/10/18 07:55:11;;;;;;;;;16.40;14.00;;;;;38.69;19.36;98922.69;6252434;27;96421;-72
2023/10/18 07:58:22;;;;;;;;;15.60;14.20;;;;;38.78;18.94;98914.59;6268983;27;96796;-72
2023/10/18 08:04:48;;;;;;;;;9.00;9.00;;;;;39.11;17.35;98913.22;6279968;27;96421;-73
2023/10/18 08:07:52;;;;;;;;;10.40;10.40;;;;;39.33;17.65;98906.28;6211510;28;96327;-73
2023/10/18 08:10:56;;;;;;;;;10.00;9.00;;;;;39.51;16.66;98897.69;6280424;27;96983;-71
2023/10/18 08:14:00;;;;;;;;;8.00;7.25;;;;;39.78;16.79;98899.47;6279856;27;96319;-71
2023/10/18 08:17:09;;;;;;;;;9.00;8.00;;;;;40.10;16.46;98896.38;6211231;28;96297;-71
2023/10/18 08:20:55;;;;;;;;;10.00;9.50;;;;;40.42;16.07;98900.91;6277749;27;96302;-73
2023/10/18 08:24:07;;;;;;;;;13.00;12.00;;;;;40.58;17.07;98903.91;6187136;28;97163;-73
2023/10/18 08:27:10;;;;;;;;;10.20;10.20;;;;;40.61;16.53;98897.47;6234732;27;96863;-73
2023/10/18 08:30:23;;;;;;;;;11.00;11.00;;;;;40.49;16.76;98901.59;6187372;28;96194;-73
2023/10/18 08:33:26;;;;;;;;;10.00;10.00;;;;;40.79;16.56;98889.53;6188630;28;96442;-72
2023/10/18 08:36:32;;;;;;;;;10.00;10.00;;;;;41.09;16.25;98889.56;6251062;27;98395;-73
2023/10/18 08:39:39;;;;;;;;;10.00;10.00;;;;;41.19;16.16;98889.81;6253559;27;96387;-73
2023/10/18 08:42:50;;;;;;;;;9.00;9.00;;;;;41.16;15.60;98885.00;6275341;27;97427;-71
2023/10/18 08:45:55;;;;;;;;;9.00;8.00;;;;;40.81;16.39;98884.25;6211792;28;96321;-73
2023/10/18 08:49:03;;;;;;;;;7.40;6.60;;;;;40.65;16.08;98878.44;6280273;27;96685;-71
2023/10/18 08:52:08;;;;;;;;;9.00;8.00;;;;;40.88;15.97;98881.34;6238115;27;96551;-71
2023/10/18 08:55:22;;;;;;;;;10.00;9.25;;;;;40.97;15.87;98878.78;6290580;27;96672;-73
2023/10/18 08:58:28;;;;;;;;;6.60;6.60;;;;;40.98;15.72;98879.59;6289600;27;96793;-73
2023/10/18 09:01:34;;;;;;;;;8.50;8.25;;;;;40.75;15.81;98877.50;6301253;27;96339;-73
2023/10/18 09:04:37;;;;;;;;;11.00;10.00;;;;;40.97;16.39;98873.13;6315653;27;96851;-71
2023/10/18 09:07:44;;;;;;;;;7.00;6.60;;;;;41.16;15.90;98873.69;6297181;27;96775;-73
2023/10/18 09:10:50;;;;;;;;;8.20;7.20;;;;;41.02;16.01;98869.81;6309482;27;96658;-73
2023/10/18 09:17:16;;;;;;;;;7.40;7.00;;;;;40.69;15.34;98867.88;6287125;27;98477;-71
2023/10/18 09:20:25;;;;;;;;;8.60;8.00;;;;;40.65;16.10;98862.28;6289910;27;97021;-71
2023/10/18 09:23:30;;;;;;;;;7.00;7.00;;;;;40.65;15.78;98859.44;6298960;27;96611;-71
2023/10/18 09:26:35;;;;;;;;;8.00;8.00;;;;;40.95;15.73;98864.28;6315580;27;96864;-71
2023/10/18 09:29:39;;;;;;;;;7.50;7.00;;;;;41.06;15.37;98856.47;6315521;27;97488;-73
2023/10/18 09:32:43;;;;;;;;;8.00;8.00;;;;;41.08;15.32;98858.88;6305194;27;98524;-73
2023/10/18 09:35:49;;;;;;;;;9.00;8.00;;;;;40.86;15.50;98854.75;6287637;27;96620;-73
2023/10/18 09:38:53;;;;;;;;;8.00;8.00;;;;;40.83;15.26;98849.91;6287989;27;96693;-70
2023/10/18 09:41:59;;;;;;;;;8.40;8.00;;;;;40.27;15.49;98852.25;6287394;27;97563;-70
2023/10/18 09:45:03;;;;;;;;;6.50;6.00;;;;;40.09;15.54;98863.69;6288490;27;96412;-70
2023/10/18 09:48:11;;;;;;;;;7.00;7.00;;;;;39.68;15.95;98849.56;6288391;27;96471;-70
2023/10/18 09:51:20;;;;;;;;;9.00;8.00;;;;;39.76;15.55;98853.16;6288574;27;96393;-72
2023/10/18 09:54:26;;;;;;;;;6.00;6.00;;;;;39.81;16.14;98833.75;6285463;27;98385;-73
2023/10/18 09:57:35;;;;;;;;;8.75;7.75;;;;;40.12;16.07;98836.66;6286624;27;98438;-70
2023/10/18 10:00:42;;;;;;;;;7.75;6.75;;;;;40.31;15.90;98835.25;6309557;27;96584;-73
2023/10/18 10:03:52;;;;;;;;;5.20;5.00;;;;;39.98;15.18;98828.34;6312620;27;96604;-71
2023/10/18 10:06:55;;;;;;;;;5.00;5.00;;;;;40.16;15.67;98838.19;6313836;27;96352;-73
2023/10/18 10:10:07;;;;;;;;;5.00;5.00;;;;;40.39;15.43;98831.09;6297514;27;96846;-71
2023/10/18 10:13:13;;;;;;;;;4.00;4.00;;;;;40.16;15.06;98831.75;6271119;27;97051;-71
2023/10/18 10:16:24;;;;;;;;;5.00;5.00;;;;;39.82;15.26;98821.22;6288001;27;96719;-69
2023/10/18 10:19:34;;;;;;;;;6.40;5.40;;;;;39.56;15.56;98818.22;6288120;27;96371;-73
2023/10/18 10:22:38;;;;;;;;;5.00;5.00;;;;;39.65;15.46;98816.53;6300331;27;96573;-73
2023/10/18 10:25:48;;;;;;;;;5.60;5.00;;;;;39.34;16.35;98820.44;6308017;27;96401;-73
2023/10/18 10:32:29;;;;;;;;;6.00;5.20;;;;;38.71;15.21;98810.38;6287664;27;97258;-74
2023/10/18 10:35:35;;;;;;;;;6.00;6.00;;;;;38.74;15.98;98806.72;6287035;27;96787;-72
2023/10/18 10:38:39;;;;;;;;;6.00;5.00;;;;;38.62;15.22;98807.19;6289800;27;97667;-73
2023/10/18 10:41:42;;;;;;;;;5.80;5.00;;;;;38.68;15.94;98809.16;6313005;27;96847;-73
2023/10/18 10:44:55;;;;;;;;;7.00;6.00;;;;;38.51;15.93;98815.72;6310192;27;97835;-72
2023/10/18 10:48:32;;;;;;;;;4.00;4.00;;;;;38.51;16.00;98802.41;6312737;27;96512;-74
2023/10/18 10:51:37;;;;;;;;;5.20;5.00;;;;;38.39;16.25;98802.84;6261505;27;97419;-73
2023/10/18 10:54:42;;;;;;;;;6.00;5.80;;;;;38.41;16.05;98797.63;6182992;28;97130;-73
2023/10/18 10:57:47;;;;;;;;;4.40;4.40;;;;;38.28;16.02;98795.66;6184251;28;96961;-74
2023/10/18 11:01:04;;;;;;;;;5.00;4.00;;;;;38.30;15.87;98799.69;6250293;27;98259;-71
2023/10/18 11:04:20;;;;;;;;;7.00;6.00;;;;;38.23;15.89;98794.06;6251242;27;96794;-73
2023/10/18 11:07:29;;;;;;;;;4.25;4.00;;;;;38.21;16.15;98792.88;6189920;28;96418;-73
2023/10/18 11:10:36;;;;;;;;;4.80;4.80;;;;;37.97;15.76;98784.09;6209246;28;96622;-73
2023/10/18 11:13:41;;;;;;;;;4.00;3.50;;;;;37.99;16.01;98781.69;6209651;28;96261;-73
2023/10/18 11:16:46;;;;;;;;;5.00;5.00;;;;;37.76;16.02;98767.25;6209382;28;96196;-73
2023/10/18 11:19:53;;;;;;;;;5.00;5.00;;;;;37.61;16.43;98755.25;6193334;28;96655;-73
2023/10/18 11:22:58;;;;;;;;;6.00;6.00;;;;;37.64;16.19;98756.44;6208887;28;96246;-74
2023/10/18 11:26:08;;;;;;;;;5.60;5.60;;;;;37.11;16.53;98743.22;6208536;28;96438;-73
2023/10/18 11:29:12;;;;;;;;;7.60;6.00;;;;;37.09;16.76;98754.06;6189387;28;96950;-74
2023/10/18 11:32:19;;;;;;;;;5.33;5.00;;;;;37.09;17.02;98756.06;6183960;28;96371;-73
2023/10/18 11:35:42;;;;;;;;;5.00;4.00;;;;;37.14;16.53;98750.81;6251204;27;98470;-75
2023/10/18 11:42:06;;;;;;;;;5.00;5.00;;;;;36.88;16.99;98737.16;6256624;27;96747;-72
2023/10/18 11:45:18;;;;;;;;;5.67;5.67;;;;;36.98;16.96;98741.19;6274392;27;96687;-72
2023/10/18 11:48:33;;;;;;;;;5.50;5.00;;;;;37.09;17.11;98730.78;6182528;27;96678;-73
2023/10/18 11:51:42;;;;;;;;;5.00;5.00;;;;;37.19;17.14;98722.31;6248138;27;96284;-73
2023/10/18 11:54:47;;;;;;;;;5.00;4.60;;;;;37.06;16.78;98723.91;6182476;28;96870;-73
2023/10/18 11:57:51;;;;;;;;;6.00;6.00;;;;;36.99;17.38;98723.13;6261297;27;97597;-72
2023/10/18 12:00:58;;;;;;;;;6.00;6.00;;;;;36.70;17.24;98709.03;6182373;28;96304;-72
2023/10/18 12:04:06;;;;;;;;;6.40;6.00;;;;;36.25;17.30;98710.56;6247500;27;96955;-73
2023/10/18 12:07:10;;;;;;;;;5.00;5.00;;;;;36.11;17.36;98704.06;6281073;27;96609;-73
2023/10/18 12:10:17;;;;;;;;;6.00;5.20;;;;;35.35;17.62;98695.63;6207933;28;96267;-73
2023/10/18 12:13:21;;;;;;;;;5.60;5.60;;;;;33.70;18.81;98694.38;6257627;27;97432;-72
2023/10/18 12:16:24;;;;;;;;;5.20;5.00;;;;;32.63;20.26;98680.72;6200363;28;96331;-73
2023/10/18 12:19:28;;;;;;;;;5.60;5.00;;;;;31.81;21.49;98671.94;6254682;27;97769;-73
2023/10/18 12:22:34;;;;;;;;;5.60;5.20;;;;;31.40;22.12;98668.66;6257872;27;97392;-70
2023/10/18 12:25:39;;;;;;;;;4.60;4.60;;;;;30.94;21.62;98661.16;6230010;27;97431;-73
2023/10/18 12:28:42;;;;;;;;;5.00;4.40;;;;;30.57;22.04;98659.88;6261939;27;97783;-71
2023/10/18 12:31:52;;;;;;;;;6.00;5.20;;;;;29.96;22.19;98663.78;6205483;28;96881;-73
2023/10/18 12:34:57;;;;;;;;;8.50;7.00;;;;;29.41;23.05;98642.34;6206090;28;96632;-72
2023/10/18 12:38:07;;;;;;;;;7.00;6.00;;;;;28.96;23.73;98647.25;6211406;27;96532;-72
2023/10/18 12:41:18;;;;;;;;;6.00;5.00;;;;;28.54;24.39;98639.13;6271110;27;97513;-73
2023/10/18 12:44:25;;;;;;;;;7.00;7.00;;;;;27.69;25.35;98635.31;6188884;28;96555;-72
2023/10/18 12:47:31;;;;;;;;;7.00;6.00;;;;;26.97;26.84;98640.09;6208584;28;96301;-72
2023/10/18 12:50:34;;;;;;;;;6.00;5.75;;;;;26.48;27.66;98632.53;6271820;27;97115;-72
2023/10/18 12:53:39;;;;;;;;;7.00;7.00;;;;;26.03;27.91;98623.88;6252416;27;96258;-69
2023/10/18 12:56:56;;;;;;;;;6.00;6.00;;;;;26.09;29.29;98620.63;6194829;28;96686;-72
2023/10/18 13:00:13;;;;;;;;;6.00;5.40;;;;;26.41;29.21;98618.41;6256961;27;96637;-72
2023/10/18 13:03:23;;;;;;;;;5.60;5.60;;;;;26.55;28.84;98614.25;6254081;27;97737;-72
2023/10/18 13:06:35;;;;;;;;;6.00;6.00;;;;;26.22;28.52;98608.56;6269598;27;98504;-72
2023/10/18 13:09:43;;;;;;;;;5.00;5.00;;;;;25.72;29.77;98608.34;6208532;27;96716;-72
2023/10/18 13:12:53;;;;;;;;;6.00;5.60;;;;;25.38;30.95;98592.59;6188658;28;96297;-72
2023/10/18 13:15:57;;;;;;;;;5.50;4.00;;;;;25.33;31.10;98608.50;6252236;27;96683;-72
2023/10/18 13:19:03;;;;;;;;;4.60;4.60;;;;;25.18;31.73;98592.44;6255977;27;96969;-72
2023/10/18 13:22:16;;;;;;;;;6.00;5.50;;;;;25.29;30.23;98588.22;6257307;27;97679;-72
2023/10/18 13:25:25;;;;;;;;;7.00;6.00;;;;;25.19;30.26;98594.88;6269846;27;96781;-71
2023/10/18 13:28:34;;;;;;;;;5.50;5.00;;;;;25.16;30.43;98586.44;6265756;27;96855;-72
2023/10/18 13:31:37;;;;;;;;;6.00;5.00;;;;;24.93;31.94;98575.53;6194731;28;96401;-72
2023/10/18 13:34:43;;;;;;;;;8.00;7.00;;;;;24.84;31.28;98569.19;6191255;28;96799;-72
2023/10/18 13:37:46;;;;;;;;;7.00;6.20;;;;;24.54;32.45;98579.19;6194291;27;96308;-71
2023/10/18 13:40:49;;;;;;;;;6.20;5.80;;;;;24.60;32.89;98571.56;6271366;27;96792;-71
2023/10/18 13:43:54;;;;;;;;;6.00;5.40;;;;;24.66;32.24;98555.69;6195588;27;97036;-71
2023/10/18 13:47:00;;;;;;;;;6.00;6.00;;;;;24.73;32.44;98564.31;6203583;28;96810;-72
2023/10/18 13:50:17;;;;;;;;;8.80;8.80;;;;;24.58;32.95;98555.34;6240347;27;97604;-71
2023/10/18 13:53:21;;;;;;;;;5.20;4.60;;;;;24.31;32.28;98558.38;6246813;27;96750;-71
2023/10/18 13:56:24;;;;;;;;;6.00;5.00;;;;;23.91;34.73;98564.97;6195737;28;97154;-71
2023/10/18 13:59:29;;;;;;;;;6.00;6.00;;;;;23.72;34.61;98565.19;6197750;28;96356;-71
2023/10/18 14:02:36;;;;;;;;;5.00;5.00;;;;;23.67;34.84;98557.06;6270553;27;96535;-71
2023/10/18 14:05:40;;;;;;;;;7.00;6.00;;;;;23.59;35.55;98549.59;6189340;27;97419;-71
2023/10/18 14:08:44;;;;;;;;;6.00;6.00;;;;;23.51;37.60;98564.09;6200339;28;96280;-72
2023/10/18 14:11:47;;;;;;;;;5.00;4.50;;;;;23.38;35.90;98548.44;6196669;27;96546;-72
2023/10/18 14:14:52;;;;;;;;;7.00;6.00;;;;;23.30;37.02;98550.84;6199238;28;96420;-71
2023/10/18 14:17:55;;;;;;;;;8.00;7.00;;;;;23.16;37.48;98538.28;6216702;27;96484;-71
2023/10/18 14:21:04;;;;;;;;;5.00;4.00;;;;;22.99;38.24;98536.19;6227799;27;96881;-72
2023/10/18 14:24:10;;;;;;;;;6.80;5.80;;;;;22.94;38.44;98535.50;6273156;27;97006;-72
2023/10/18 14:27:14;;;;;;;;;6.75;6.00;;;;;22.79;40.93;98531.16;6184860;28;96535;-71
2023/10/18 14:30:19;;;;;;;;;6.00;5.60;;;;;22.65;40.30;98538.59;6186191;28;96301;-71
2023/10/18 14:33:22;;;;;;;;;6.40;6.40;;;;;22.46;41.17;98536.81;6271340;27;96901;-71
2023/10/18 14:36:36;;;;;;;;;7.40;7.40;;;;;22.22;42.74;98533.47;6302935;27;96343;-71
2023/10/18 14:39:39;;;;;;;;;6.60;6.60;;;;;22.08;45.15;98532.66;6264677;27;96630;-72
2023/10/18 14:42:42;;;;;;;;;7.20;6.00;;;;;21.85;44.66;98534.44;6281494;27;98536;-71
2023/10/18 14:45:47;;;;;;;;;6.40;6.00;;;;;21.55;49.04;98518.56;6268183;27;96714;-71
2023/10/18 14:48:50;;;;;;;;;6.00;5.75;;;;;21.31;51.98;98523.34;6270054;27;96283;-71